createdAt,value
2022-11-23T00:01:27.829Z,8.70
2022-11-23T00:03:57.133Z,7.50
2022-11-23T00:06:26.047Z,10.13
2022-11-23T00:08:53.953Z,7.80
2022-11-23T00:11:22.523Z,8.67
2022-11-23T00:13:49.581Z,9.40
2022-11-23T00:16:25.365Z,14.87
2022-11-23T00:18:57.171Z,8.23
2022-11-23T00:21:26.450Z,6.60
2022-11-23T00:23:53.569Z,6.83
2022-11-23T00:26:20.857Z,7.53
2022-11-23T00:28:48.098Z,4.53
2022-11-23T00:31:17.194Z,7.40
2022-11-23T00:33:52.961Z,8.67
2022-11-23T00:36:20.863Z,7.30
2022-11-23T00:38:48.607Z,11.17
2022-11-23T00:41:18.177Z,6.00
2022-11-23T00:43:45.234Z,8.73
2022-11-23T00:46:29.568Z,7.47
2022-11-23T00:48:57.545Z,11.13
2022-11-23T00:51:27.690Z,6.60
2022-11-23T00:53:54.735Z,9.00
2022-11-23T00:56:22.088Z,8.63
2022-11-23T00:58:50.482Z,5.87
2022-11-23T01:01:20.249Z,7.00
2022-11-23T01:03:50.288Z,7.07
2022-11-23T01:06:20.164Z,4.90
2022-11-23T01:08:54.980Z,4.67
2022-11-23T01:11:23.301Z,5.70
2022-11-23T01:13:50.460Z,7.83
2022-11-23T01:16:27.580Z,4.70
2022-11-23T01:19:00.138Z,5.27
2022-11-23T01:21:28.657Z,3.60
2022-11-23T01:23:57.249Z,5.37
2022-11-23T01:26:24.650Z,5.37
2022-11-23T01:28:51.899Z,5.87
2022-11-23T01:31:21.394Z,3.63
2022-11-23T01:33:48.605Z,5.70
2022-11-23T01:36:20.890Z,4.50
2022-11-23T01:38:49.226Z,5.50
2022-11-23T01:41:21.934Z,3.60
2022-11-23T01:43:49.527Z,4.53
2022-11-23T01:46:17.846Z,4.83
2022-11-23T01:48:56.853Z,3.40
2022-11-23T01:51:28.629Z,4.77
2022-11-23T01:54:00.659Z,5.57
2022-11-23T01:56:31.422Z,6.63
2022-11-23T01:59:02.318Z,4.50
2022-11-23T02:01:29.492Z,6.77
2022-11-23T02:03:59.011Z,5.43
2022-11-23T02:06:26.046Z,4.07
2022-11-23T02:08:53.740Z,3.63
2022-11-23T02:11:20.883Z,4.37
2022-11-23T02:13:51.366Z,6.27
2022-11-23T02:16:21.430Z,3.87
2022-11-23T02:18:50.969Z,6.67
2022-11-23T02:21:17.905Z,7.40
2022-11-23T02:24:09.170Z,7.23
2022-11-23T02:26:37.056Z,4.87
2022-11-23T02:29:24.181Z,3.90
2022-11-23T02:31:51.175Z,6.40
2022-11-23T02:34:18.507Z,9.77
2022-11-23T02:36:48.270Z,6.10
2022-11-23T02:39:22.703Z,5.07
2022-11-23T02:41:52.026Z,4.67
2022-11-23T02:44:30.701Z,5.43
2022-11-23T02:46:57.974Z,5.97
2022-11-23T02:49:25.156Z,3.77
2022-11-23T02:51:52.475Z,6.43
2022-11-23T02:54:19.702Z,5.00
2022-11-23T02:56:46.660Z,6.37
2022-11-23T02:59:13.683Z,6.67
2022-11-23T03:01:42.571Z,5.17
2022-11-23T03:04:10.657Z,6.37
2022-11-23T03:06:37.700Z,7.23
2022-11-23T03:09:05.607Z,7.03
2022-11-23T03:11:33.109Z,7.63
2022-11-23T03:14:00.419Z,12.30
2022-11-23T03:16:27.380Z,5.10
2022-11-23T03:18:54.315Z,8.27
2022-11-23T03:21:21.221Z,7.47
2022-11-23T03:23:48.209Z,5.50
2022-11-23T03:26:15.205Z,5.73
2022-11-23T03:28:42.108Z,7.53
2022-11-23T03:31:09.197Z,8.87
2022-11-23T03:33:36.140Z,6.90
2022-11-23T03:36:03.017Z,7.23
2022-11-23T03:38:29.913Z,6.97
2022-11-23T03:40:56.827Z,8.10
2022-11-23T03:43:23.913Z,7.20
2022-11-23T03:45:50.904Z,6.43
2022-11-23T03:48:17.773Z,7.27
2022-11-23T03:50:45.511Z,7.77
2022-11-23T03:53:12.933Z,7.13
2022-11-23T03:55:39.875Z,10.70
2022-11-23T03:58:06.811Z,6.83
2022-11-23T04:00:34.178Z,14.67
2022-11-23T04:03:01.183Z,7.63
2022-11-23T04:05:28.074Z,12.20
2022-11-23T04:07:54.966Z,6.83
2022-11-23T04:10:23.041Z,10.97
2022-11-23T04:12:53.704Z,8.87
2022-11-23T04:15:20.975Z,9.13
2022-11-23T04:17:47.830Z,12.00
2022-11-23T04:20:15.060Z,9.87
2022-11-23T04:22:41.972Z,10.93
2022-11-23T04:25:09.663Z,11.97
2022-11-23T04:27:36.538Z,12.07
2022-11-23T04:30:03.826Z,21.00
2022-11-23T04:32:30.671Z,9.17
2022-11-23T04:34:59.534Z,11.43
2022-11-23T04:37:26.445Z,13.67
2022-11-23T04:39:53.518Z,10.73
2022-11-23T04:42:20.463Z,9.63
2022-11-23T04:44:47.443Z,12.57
2022-11-23T04:47:14.601Z,11.50
2022-11-23T04:49:41.510Z,14.93
2022-11-23T04:52:08.381Z,11.33
2022-11-23T04:54:35.333Z,9.33
2022-11-23T04:57:02.262Z,9.83
2022-11-23T04:59:30.488Z,13.43
2022-11-23T05:01:57.703Z,13.97
2022-11-23T05:04:24.559Z,7.43
2022-11-23T05:06:51.518Z,9.90
2022-11-23T05:09:18.495Z,11.00
2022-11-23T05:11:45.393Z,13.87
2022-11-23T05:14:15.469Z,11.20
2022-11-23T05:16:42.612Z,14.90
2022-11-23T05:19:12.683Z,8.73
2022-11-23T05:21:40.790Z,8.47
2022-11-23T05:24:07.843Z,7.63
2022-11-23T05:26:34.704Z,9.83
2022-11-23T05:29:01.679Z,9.80
2022-11-23T05:31:28.554Z,10.07
2022-11-23T05:33:55.424Z,7.50
2022-11-23T05:36:22.294Z,14.87
2022-11-23T05:38:49.372Z,9.43
2022-11-23T05:41:16.347Z,5.83
2022-11-23T05:43:43.203Z,9.80
2022-11-23T05:46:13.114Z,8.67
2022-11-23T05:48:39.990Z,9.80
2022-11-23T05:51:07.013Z,8.53
2022-11-23T05:53:34.421Z,13.87
2022-11-23T05:56:02.338Z,8.90
2022-11-23T05:58:30.458Z,11.30
2022-11-23T06:00:58.985Z,8.27
2022-11-23T06:03:26.019Z,13.37
2022-11-23T06:05:52.955Z,6.37
2022-11-23T06:08:19.854Z,14.13
2022-11-23T06:10:46.780Z,10.50
2022-11-23T06:13:13.636Z,9.60
2022-11-23T06:15:40.696Z,14.47
2022-11-23T06:18:07.618Z,10.73
2022-11-23T06:20:34.508Z,7.43
2022-11-23T06:23:01.434Z,11.10
2022-11-23T06:25:28.310Z,11.57
2022-11-23T06:28:01.358Z,13.83
2022-11-23T06:30:30.801Z,7.43
2022-11-23T06:32:58.035Z,9.93
2022-11-23T06:35:25.236Z,8.23
2022-11-23T06:37:53.782Z,8.70
2022-11-23T06:40:20.998Z,6.63
2022-11-23T06:42:48.546Z,8.53
2022-11-23T06:45:15.832Z,10.57
2022-11-23T06:47:43.937Z,14.83
2022-11-23T06:50:11.442Z,6.60
2022-11-23T06:52:38.311Z,12.70
2022-11-23T06:55:05.507Z,10.57
2022-11-23T06:57:32.519Z,7.93
2022-11-23T06:59:59.508Z,11.00
2022-11-23T07:02:26.507Z,10.37
2022-11-23T07:04:53.685Z,7.83
2022-11-23T07:07:20.722Z,7.47
2022-11-23T07:09:48.002Z,19.10
2022-11-23T07:12:14.955Z,8.53
2022-11-23T07:14:41.999Z,11.33
2022-11-23T07:17:08.918Z,9.23
2022-11-23T07:19:35.934Z,9.73
2022-11-23T07:22:02.805Z,10.37
2022-11-23T07:24:34.482Z,8.67
2022-11-23T07:27:04.870Z,11.27
2022-11-23T07:29:32.989Z,15.37
2022-11-23T07:32:00.535Z,11.97
2022-11-23T07:34:30.499Z,11.43
2022-11-23T07:37:01.830Z,7.47
2022-11-23T07:39:54.975Z,14.50
2022-11-23T07:42:32.731Z,9.07
2022-11-23T07:45:00.817Z,10.53
2022-11-23T07:47:27.860Z,10.27
2022-11-23T07:49:54.811Z,10.40
2022-11-23T07:52:24.796Z,8.77
2022-11-23T07:54:53.706Z,12.30
2022-11-23T07:57:20.595Z,11.50
2022-11-23T07:59:48.425Z,12.57
2022-11-23T08:02:18.546Z,9.67
2022-11-23T08:04:48.649Z,7.90
2022-11-23T08:07:15.900Z,18.80
2022-11-23T08:09:44.801Z,10.93
2022-11-23T08:12:12.743Z,10.20
2022-11-23T08:14:41.662Z,12.20
2022-11-23T08:17:10.609Z,12.17
2022-11-23T08:19:37.718Z,8.50
2022-11-23T08:22:04.643Z,11.97
2022-11-23T08:24:32.153Z,12.63
2022-11-23T08:26:59.391Z,14.90
2022-11-23T08:29:26.299Z,9.30
2022-11-23T08:31:53.222Z,11.60
2022-11-23T08:34:26.130Z,16.03
2022-11-23T08:36:56.845Z,16.63
2022-11-23T08:39:23.717Z,14.00
2022-11-23T08:41:50.653Z,12.80
2022-11-23T08:44:20.572Z,9.53
2022-11-23T08:46:48.457Z,12.60
2022-11-23T08:49:18.486Z,14.53
2022-11-23T08:51:50.214Z,16.50
2022-11-23T08:54:20.767Z,9.30
2022-11-23T08:56:48.672Z,16.10
2022-11-23T08:59:17.858Z,12.70
2022-11-23T09:01:46.957Z,20.57
2022-11-23T09:04:20.675Z,14.70
2022-11-23T09:06:48.193Z,14.70
2022-11-23T09:09:17.077Z,14.03
2022-11-23T09:11:46.096Z,8.87
2022-11-23T09:14:13.052Z,13.13
2022-11-23T09:16:43.057Z,15.77
2022-11-23T09:19:14.156Z,11.27
2022-11-23T09:21:44.568Z,14.93
2022-11-23T09:24:14.725Z,9.67
2022-11-23T09:26:44.764Z,14.20
2022-11-23T09:29:14.824Z,14.03
2022-11-23T09:31:43.818Z,17.87
2022-11-23T09:34:20.893Z,7.83
2022-11-23T09:36:51.089Z,13.37
2022-11-23T09:39:23.762Z,12.83
2022-11-23T09:42:17.922Z,10.97
2022-11-23T09:45:04.141Z,13.67
2022-11-23T09:47:45.081Z,16.40
2022-11-23T09:50:33.747Z,15.87
2022-11-23T09:53:07.947Z,14.43
2022-11-23T09:55:53.949Z,12.90
2022-11-23T09:58:25.595Z,8.73
2022-11-23T10:01:08.058Z,15.87
2022-11-23T10:03:41.515Z,13.17
2022-11-23T10:06:27.613Z,11.77
2022-11-23T10:09:29.310Z,10.40
2022-11-23T10:12:10.889Z,16.27
2022-11-23T10:15:15.296Z,14.17
2022-11-23T10:17:55.439Z,15.23
2022-11-23T10:20:37.669Z,13.27
2022-11-23T10:23:19.771Z,13.13
2022-11-23T10:25:57.979Z,8.40
2022-11-23T10:28:31.768Z,15.63
2022-11-23T10:31:18.441Z,15.40
2022-11-23T10:33:57.125Z,11.00
2022-11-23T10:36:26.151Z,9.23
2022-11-23T10:38:59.912Z,11.77
2022-11-23T10:41:30.990Z,10.37
2022-11-23T10:44:25.817Z,12.23
2022-11-23T10:46:52.820Z,11.63
2022-11-23T10:49:19.786Z,9.83
2022-11-23T10:52:23.469Z,8.17
2022-11-23T10:54:56.518Z,10.77
2022-11-23T10:57:41.444Z,8.57
2022-11-23T11:00:13.208Z,8.97
2022-11-23T11:02:48.488Z,11.30
2022-11-23T11:06:07.047Z,11.10
2022-11-23T11:08:27.759Z,12.93
2022-11-23T11:11:08.586Z,9.13
2022-11-23T11:13:46.196Z,9.87
2022-11-23T11:16:25.023Z,9.50
2022-11-23T11:18:52.043Z,7.87
2022-11-23T11:21:47.507Z,9.57
2022-11-23T11:24:26.717Z,10.60
2022-11-23T11:26:59.078Z,8.93
2022-11-23T11:29:39.430Z,11.37
2022-11-23T11:32:29.181Z,8.43
2022-11-23T11:35:10.479Z,9.93
2022-11-23T11:37:41.130Z,8.90
2022-11-23T11:40:32.151Z,5.70
2022-11-23T11:43:11.562Z,7.03
2022-11-23T11:48:37.689Z,4.80
2022-11-23T11:51:20.115Z,9.57
2022-11-23T11:54:04.299Z,11.10
2022-11-23T11:56:39.566Z,8.50
2022-11-23T11:59:27.727Z,9.33
2022-11-23T12:02:31.250Z,7.30
2022-11-23T12:05:29.980Z,11.07
2022-11-23T12:08:37.229Z,9.77
2022-11-23T12:11:07.269Z,4.50
2022-11-23T12:13:37.130Z,8.13
2022-11-23T12:16:41.520Z,8.10
2022-11-23T12:19:25.874Z,9.13
2022-11-23T12:22:17.587Z,5.13
2022-11-23T12:25:25.152Z,4.93
2022-11-23T12:28:26.902Z,5.13
2022-11-23T12:31:39.459Z,7.30
2022-11-23T12:34:22.018Z,6.87
2022-11-23T12:37:24.779Z,5.73
2022-11-23T12:40:24.637Z,4.13
2022-11-23T12:43:01.023Z,7.50
2022-11-23T12:45:55.965Z,4.97
2022-11-23T12:48:44.353Z,5.13
2022-11-23T12:51:34.420Z,4.03
2022-11-23T12:54:40.306Z,5.13
2022-11-23T12:57:22.592Z,4.13
2022-11-23T12:59:52.535Z,2.73
2022-11-23T13:02:34.227Z,3.27
2022-11-23T13:05:22.941Z,4.30
2022-11-23T13:08:08.770Z,5.60
2022-11-23T13:11:13.665Z,4.13
2022-11-23T13:14:12.431Z,4.57
2022-11-23T13:16:42.418Z,5.07
2022-11-23T13:19:12.179Z,3.67
2022-11-23T13:21:46.984Z,3.23
2022-11-23T13:24:38.854Z,6.50
2022-11-23T13:27:17.948Z,3.23
2022-11-23T13:29:58.837Z,4.13
2022-11-23T13:32:39.243Z,3.63
2022-11-23T13:35:27.865Z,6.37
2022-11-23T13:38:03.727Z,3.43
2022-11-23T13:40:36.408Z,3.80
2022-11-23T13:43:21.766Z,4.93
2022-11-23T13:46:29.280Z,5.07
2022-11-23T13:49:00.800Z,4.53
2022-11-23T13:51:33.910Z,3.80
2022-11-23T13:54:22.025Z,4.23
2022-11-23T13:57:02.375Z,5.10
2022-11-23T13:59:34.962Z,4.47
2022-11-23T14:02:13.736Z,5.63
2022-11-23T14:04:46.907Z,3.93
2022-11-23T14:07:43.280Z,3.47
2022-11-23T14:10:24.121Z,3.40
2022-11-23T14:13:28.005Z,3.23
2022-11-23T14:16:01.571Z,2.80
2022-11-23T14:18:56.223Z,4.90
2022-11-23T14:21:25.910Z,3.57
2022-11-23T14:24:29.407Z,2.73
2022-11-23T14:27:45.662Z,5.70
2022-11-23T14:30:13.777Z,3.23
2022-11-23T14:33:11.923Z,3.50
2022-11-23T14:36:04.787Z,3.53
2022-11-23T14:39:09.209Z,3.87
2022-11-23T14:41:42.460Z,3.47
2022-11-23T14:44:16.635Z,2.67
2022-11-23T14:47:05.581Z,3.70
2022-11-23T14:49:35.536Z,2.93
2022-11-23T14:52:06.035Z,4.80
2022-11-23T14:54:39.309Z,3.80
2022-11-23T14:57:12.385Z,4.20
2022-11-23T14:59:47.025Z,4.97
2022-11-23T15:02:34.903Z,3.97
2022-11-23T15:05:02.860Z,5.73
2022-11-23T15:08:00.666Z,4.30
2022-11-23T15:10:49.474Z,4.10
2022-11-23T15:13:28.948Z,5.40
2022-11-23T15:15:59.218Z,4.93
2022-11-23T15:18:39.616Z,7.50
2022-11-23T15:21:26.612Z,3.73
2022-11-23T15:23:57.553Z,7.70
2022-11-23T15:29:38.828Z,3.60
2022-11-23T15:32:31.128Z,3.90
2022-11-23T15:35:08.199Z,4.27
2022-11-23T15:37:55.711Z,6.60
2022-11-23T15:40:35.467Z,5.60
2022-11-23T15:43:17.309Z,6.67
2022-11-23T15:45:45.325Z,3.17
2022-11-23T15:48:48.216Z,5.10
2022-11-23T15:51:37.263Z,5.47
2022-11-23T15:54:06.019Z,5.70
2022-11-23T15:56:35.936Z,10.73
2022-11-23T15:59:20.713Z,4.57
2022-11-23T16:01:49.128Z,8.47
2022-11-23T16:04:39.961Z,8.23
2022-11-23T16:07:23.830Z,5.60
2022-11-23T16:10:11.682Z,6.90
2022-11-23T16:13:01.865Z,13.53
2022-11-23T16:15:38.061Z,7.80
2022-11-23T16:18:14.087Z,9.80
2022-11-23T16:21:13.839Z,8.13
2022-11-23T16:23:55.671Z,9.03
2022-11-23T16:26:33.058Z,8.87
2022-11-23T16:29:02.264Z,10.83
2022-11-23T16:31:40.743Z,16.03
2022-11-23T16:34:15.803Z,11.67
2022-11-23T16:36:42.742Z,12.30
2022-11-23T16:39:09.596Z,11.03
2022-11-23T16:41:36.687Z,10.33
2022-11-23T16:44:04.040Z,11.47
2022-11-23T16:46:32.727Z,11.17
2022-11-23T16:49:00.652Z,10.67
2022-11-23T16:51:27.714Z,14.07
2022-11-23T16:56:42.835Z,11.73
2022-11-23T16:59:18.640Z,12.57
2022-11-23T17:01:55.471Z,10.40
2022-11-23T17:04:24.432Z,16.73
2022-11-23T17:06:51.351Z,15.83
2022-11-23T17:09:18.254Z,16.60
2022-11-23T17:11:47.628Z,13.13
2022-11-23T17:14:30.233Z,18.37
2022-11-23T17:16:57.256Z,16.80
2022-11-23T17:19:24.319Z,14.63
2022-11-23T17:21:51.134Z,14.03
2022-11-23T17:24:17.990Z,15.10
2022-11-23T17:26:47.309Z,14.87
2022-11-23T17:29:19.076Z,9.73
2022-11-23T17:31:46.932Z,18.57
2022-11-23T17:34:14.380Z,20.77
2022-11-23T17:36:43.008Z,10.93
2022-11-23T17:39:19.794Z,11.17
2022-11-23T17:41:48.183Z,12.07
2022-11-23T17:44:16.391Z,11.57
2022-11-23T17:46:44.420Z,15.20
2022-11-23T17:49:17.079Z,20.53
2022-11-23T17:51:44.146Z,13.37
2022-11-23T17:54:11.142Z,9.60
2022-11-23T17:56:39.127Z,14.43
2022-11-23T17:59:09.206Z,14.93
2022-11-23T18:01:36.485Z,10.03
2022-11-23T18:04:05.033Z,10.80
2022-11-23T18:06:32.106Z,14.50
2022-11-23T18:08:58.970Z,12.20
2022-11-23T18:11:25.919Z,14.40
2022-11-23T18:13:52.928Z,15.80
2022-11-23T18:16:21.166Z,11.83
2022-11-23T18:18:49.077Z,20.13
2022-11-23T18:21:15.966Z,25.37
2022-11-23T18:23:43.200Z,23.57
2022-11-23T18:26:30.635Z,25.33
2022-11-23T18:29:00.476Z,27.27
2022-11-23T18:31:27.814Z,18.40
2022-11-23T18:33:55.052Z,17.10
2022-11-23T18:36:22.150Z,17.30
2022-11-23T18:38:49.038Z,21.53
2022-11-23T18:41:17.100Z,15.23
2022-11-23T18:43:44.538Z,13.47
2022-11-23T18:46:13.071Z,23.13
2022-11-23T18:48:40.002Z,19.97
2022-11-23T18:51:11.865Z,16.03
2022-11-23T18:53:39.339Z,26.03
2022-11-23T18:56:08.343Z,27.30
2022-11-23T18:58:39.464Z,19.87
2022-11-23T19:01:12.689Z,15.87
2022-11-23T19:03:41.791Z,18.63
2022-11-23T19:06:13.772Z,17.83
2022-11-23T19:08:59.445Z,19.20
2022-11-23T19:11:28.705Z,20.17
2022-11-23T19:13:57.330Z,21.47
2022-11-23T19:16:27.506Z,15.67
2022-11-23T19:18:55.914Z,19.00
2022-11-23T19:21:25.136Z,20.40
2022-11-23T19:23:53.703Z,23.77
2022-11-23T19:26:21.354Z,20.40
2022-11-23T19:28:48.578Z,18.87
2022-11-23T19:31:18.302Z,20.13
2022-11-23T19:33:46.863Z,22.33
2022-11-23T19:36:19.753Z,33.30
2022-11-23T19:38:48.292Z,17.80
2022-11-23T19:41:17.354Z,23.23
2022-11-23T19:43:44.825Z,23.43
2022-11-23T19:46:14.837Z,21.80
2022-11-23T19:48:42.248Z,21.97
2022-11-23T19:51:14.730Z,28.80
2022-11-23T19:53:42.825Z,21.50
2022-11-23T19:56:15.731Z,21.07
2022-11-23T19:58:43.656Z,22.63
2022-11-23T20:01:16.573Z,23.57
2022-11-23T20:03:46.256Z,17.93
2022-11-23T20:06:19.766Z,18.60
2022-11-23T20:08:46.671Z,16.23
2022-11-23T20:11:16.557Z,17.87
2022-11-23T20:13:44.891Z,14.10
2022-11-23T20:16:18.199Z,14.83
2022-11-23T20:18:46.307Z,15.10
2022-11-23T20:21:13.871Z,16.43
2022-11-23T20:23:41.480Z,14.40
2022-11-23T20:26:14.514Z,21.47
2022-11-23T20:28:42.457Z,15.00
2022-11-23T20:31:20.427Z,25.23
2022-11-23T20:33:50.416Z,14.20
2022-11-23T20:36:23.072Z,16.50
2022-11-23T20:38:51.466Z,16.87
2022-11-23T20:41:24.444Z,18.60
2022-11-23T20:43:55.247Z,17.43
2022-11-23T20:46:38.600Z,14.20
2022-11-23T20:49:10.776Z,20.70
2022-11-23T20:51:37.754Z,15.77
2022-11-23T20:54:04.720Z,12.57
2022-11-23T20:56:32.331Z,22.30
2022-11-23T20:59:04.266Z,13.53
2022-11-23T21:01:31.336Z,14.63
2022-11-23T21:03:59.619Z,16.97
2022-11-23T21:06:27.407Z,19.10
2022-11-23T21:08:55.070Z,12.47
2022-11-23T21:11:46.075Z,21.73
2022-11-23T21:14:21.115Z,20.17
2022-11-23T21:16:53.488Z,21.67
2022-11-23T21:19:25.411Z,20.13
2022-11-23T21:21:52.981Z,18.37
2022-11-23T21:24:20.357Z,21.17
2022-11-23T21:26:48.357Z,18.80
2022-11-23T21:29:19.423Z,18.97
2022-11-23T21:31:48.647Z,19.27
2022-11-23T21:34:19.585Z,14.63
2022-11-23T21:36:46.891Z,21.60
2022-11-23T21:39:14.339Z,20.97
2022-11-23T21:41:41.919Z,16.67
2022-11-23T21:44:09.828Z,15.13
2022-11-23T21:46:38.621Z,16.37
2022-11-23T21:49:08.761Z,13.43
2022-11-23T21:51:36.965Z,22.73
2022-11-23T21:54:06.196Z,14.40
2022-11-23T21:56:33.429Z,18.90
2022-11-23T21:59:00.545Z,18.43
2022-11-23T22:01:29.900Z,18.77
2022-11-23T22:04:00.222Z,11.07
2022-11-23T22:06:27.338Z,13.53
2022-11-23T22:08:56.491Z,13.87
2022-11-23T22:11:34.222Z,17.43
2022-11-23T22:14:08.059Z,14.60
2022-11-23T22:16:36.887Z,11.43
2022-11-23T22:19:04.782Z,18.00
2022-11-23T22:21:36.842Z,17.70
2022-11-23T22:24:05.426Z,19.63
2022-11-23T22:26:32.580Z,20.60
2022-11-23T22:29:02.926Z,12.17
2022-11-23T22:31:33.149Z,21.47
2022-11-23T22:34:01.848Z,12.87
2022-11-23T22:36:29.422Z,14.07
2022-11-23T22:39:04.690Z,14.00
2022-11-23T22:41:37.208Z,11.60
2022-11-23T22:44:06.409Z,11.20
2022-11-23T22:46:33.524Z,11.27
2022-11-23T22:49:00.477Z,15.67
2022-11-23T22:51:28.819Z,12.67
2022-11-23T22:53:59.834Z,10.37
2022-11-23T22:56:28.864Z,12.33
2022-11-23T22:58:57.871Z,15.10
2022-11-23T23:01:29.532Z,17.17
2022-11-23T23:03:58.148Z,8.10
2022-11-23T23:06:28.675Z,11.87
2022-11-23T23:08:57.860Z,17.63
2022-11-23T23:11:26.488Z,10.53
2022-11-23T23:13:53.717Z,14.03
2022-11-23T23:16:21.196Z,10.63
2022-11-23T23:18:48.308Z,9.97
2022-11-23T23:21:17.898Z,8.90
2022-11-23T23:23:46.798Z,9.60
2022-11-23T23:26:16.116Z,11.97
2022-11-23T23:28:44.085Z,7.27
2022-11-23T23:31:14.045Z,10.73
2022-11-23T23:33:41.642Z,9.77
2022-11-23T23:36:11.686Z,11.17
2022-11-23T23:38:39.169Z,9.67
2022-11-23T23:41:07.712Z,6.60
2022-11-23T23:43:35.193Z,9.90
2022-11-23T23:46:04.357Z,6.77
2022-11-23T23:48:33.820Z,7.90
2022-11-23T23:51:22.151Z,9.33
2022-11-23T23:53:50.974Z,9.77
2022-11-23T23:56:18.809Z,8.77
2022-11-23T23:58:46.344Z,11.97
